Time;durP1;ratioP1;P1;durP2;ratioP2;P2;SDS_P1;SDS_P2;PMS_P1;PMS_P2;Temp;Humidity;BMP_temperature;BMP_pressure;BME280_temperature;BME280_humidity;BME280_pressure;Samples;Min_cycle;Max_cycle;Signal;HPM_P1;HPM_P2
2021/12/23 00:00:55;;;;;;;17.60;9.40;;;3.30;84.40;;;;;;5032824;28;20137;-71
2021/12/23 00:03:21;;;;;;;16.10;7.95;;;3.20;84.40;;;;;;5044183;28;20036;-72
2021/12/23 00:05:47;;;;;;;18.52;7.97;;;3.20;84.40;;;;;;5043252;28;20033;-72
2021/12/23 00:08:12;;;;;;;15.63;8.13;;;3.30;84.50;;;;;;5032053;28;20377;-72
2021/12/23 00:10:40;;;;;;;17.75;9.23;;;3.30;84.60;;;;;;5040649;28;20056;-71
2021/12/23 00:13:06;;;;;;;21.27;9.02;;;3.20;84.50;;;;;;5049861;28;20036;-71
2021/12/23 00:15:38;;;;;;;17.58;9.05;;;3.30;84.60;;;;;;5051665;28;20025;-71
2021/12/23 00:23:35;;;;;;;19.70;8.68;;;3.20;84.70;;;;;;5052518;28;20037;-72
2021/12/23 00:26:02;;;;;;;13.57;8.05;;;3.20;84.50;;;;;;5033665;28;20021;-72
2021/12/23 00:28:30;;;;;;;20.33;8.95;;;3.30;84.60;;;;;;5032595;28;20064;-72
2021/12/23 00:30:56;;;;;;;18.85;9.20;;;3.30;84.60;;;;;;5050530;28;20389;-72
2021/12/23 00:33:23;;;;;;;19.80;9.35;;;3.30;84.60;;;;;;5051451;28;20036;-72
2021/12/23 00:35:49;;;;;;;18.75;8.35;;;3.30;84.70;;;;;;5039045;28;20111;-72
2021/12/23 00:38:18;;;;;;;20.75;9.40;;;3.30;84.70;;;;;;5040093;28;20036;-72
2021/12/23 00:40:44;;;;;;;21.88;9.30;;;3.30;84.80;;;;;;5037676;28;20487;-72
2021/12/23 00:43:10;;;;;;;22.65;9.55;;;3.20;84.80;;;;;;5039256;28;20033;-72
2021/12/23 00:45:35;;;;;;;20.08;9.10;;;3.20;84.80;;;;;;5032153;28;20038;-72
2021/12/23 00:48:01;;;;;;;24.17;9.90;;;3.30;84.90;;;;;;5031406;28;20041;-72
2021/12/23 00:50:26;;;;;;;19.45;10.18;;;3.30;84.90;;;;;;5043634;28;20029;-72
2021/12/23 00:52:56;;;;;;;17.70;8.02;;;3.30;85.00;;;;;;5031890;28;20049;-72
2021/12/23 00:55:22;;;;;;;18.77;9.50;;;3.30;85.00;;;;;;5047240;28;20037;-72
2021/12/23 00:57:48;;;;;;;20.02;8.90;;;3.20;85.00;;;;;;5052057;28;20484;-72
2021/12/23 01:00:18;;;;;;;17.95;8.27;;;3.20;85.00;;;;;;5034399;28;20068;-72
2021/12/23 01:02:45;;;;;;;16.10;9.25;;;3.30;85.20;;;;;;5037717;28;20684;-72
2021/12/23 01:05:13;;;;;;;21.90;9.82;;;3.20;85.20;;;;;;5038503;28;20053;-72
2021/12/23 01:07:39;;;;;;;23.77;9.35;;;3.20;85.20;;;;;;5047417;28;20035;-72
2021/12/23 01:10:06;;;;;;;18.92;8.43;;;3.30;85.30;;;;;;5047707;28;20026;-72
2021/12/23 01:12:38;;;;;;;15.60;8.70;;;3.30;85.30;;;;;;5036769;28;20029;-71
2021/12/23 01:17:59;;;;;;;16.77;8.38;;;3.30;85.30;;;;;;5041097;28;20043;-72
2021/12/23 01:20:37;;;;;;;13.80;7.65;;;3.40;85.40;;;;;;5048511;28;20037;-72
2021/12/23 01:23:06;;;;;;;23.40;8.05;;;3.40;85.40;;;;;;5047888;28;20035;-72
2021/12/23 01:25:34;;;;;;;12.88;7.20;;;3.40;85.40;;;;;;5049087;28;20033;-72
2021/12/23 01:28:00;;;;;;;17.10;8.23;;;3.50;85.50;;;;;;5054805;28;20358;-72
2021/12/23 01:30:26;;;;;;;23.63;8.70;;;3.40;85.70;;;;;;5054713;28;20094;-72
2021/12/23 01:32:54;;;;;;;17.05;6.03;;;3.50;85.70;;;;;;5038935;28;20029;-72
2021/12/23 01:35:20;;;;;;;22.25;9.23;;;3.50;85.80;;;;;;5035364;28;20035;-72
2021/12/23 01:37:47;;;;;;;17.90;8.52;;;3.60;85.70;;;;;;5038028;28;20021;-72
2021/12/23 01:40:14;;;;;;;18.52;8.80;;;3.60;85.50;;;;;;5044451;28;20401;-72
2021/12/23 01:42:40;;;;;;;11.38;7.20;;;3.60;85.50;;;;;;5050955;28;20037;-72
2021/12/23 01:45:16;;;;;;;22.50;9.23;;;3.60;85.50;;;;;;5045206;28;20026;-72
2021/12/23 01:47:43;;;;;;;22.02;9.43;;;3.60;85.70;;;;;;5048135;28;20447;-72
2021/12/23 01:50:11;;;;;;;21.85;8.75;;;3.60;85.50;;;;;;5034249;28;20473;-72
2021/12/23 01:52:38;;;;;;;22.30;8.65;;;3.60;85.60;;;;;;5034933;28;20057;-72
2021/12/23 01:55:06;;;;;;;16.83;8.80;;;3.60;85.80;;;;;;5046072;28;20033;-72
2021/12/23 01:57:33;;;;;;;13.40;6.60;;;3.60;85.70;;;;;;5048307;28;20400;-72
2021/12/23 02:00:00;;;;;;;22.33;9.32;;;3.60;85.80;;;;;;5049342;28;20041;-72
2021/12/23 02:02:27;;;;;;;22.88;9.68;;;3.70;86.00;;;;;;5039897;28;20420;-72
2021/12/23 02:04:53;;;;;;;16.65;8.38;;;3.70;85.90;;;;;;5046805;28;20032;-72
2021/12/23 02:07:19;;;;;;;18.23;10.25;;;3.60;85.70;;;;;;5050085;28;20123;-72
2021/12/23 02:09:45;;;;;;;19.25;6.20;;;3.60;85.70;;;;;;5041763;28;20116;-73
2021/12/23 02:12:11;;;;;;;13.93;7.55;;;3.60;86.00;;;;;;5039867;28;20384;-73
2021/12/23 02:14:37;;;;;;;9.68;4.70;;;3.60;86.50;;;;;;5054138;28;20432;-72
2021/12/23 02:17:03;;;;;;;11.52;6.13;;;3.50;86.40;;;;;;5053759;28;20029;-72
2021/12/23 02:19:32;;;;;;;16.13;7.72;;;3.60;86.70;;;;;;5040276;28;20029;-72
2021/12/23 02:21:58;;;;;;;11.85;5.20;;;3.50;86.70;;;;;;5046311;28;20044;-72
2021/12/23 02:24:25;;;;;;;6.65;4.40;;;3.50;86.90;;;;;;5035982;28;20084;-72
2021/12/23 02:26:50;;;;;;;7.82;4.15;;;3.40;87.60;;;;;;5053499;28;20507;-72
2021/12/23 02:29:16;;;;;;;7.32;4.63;;;3.40;88.30;;;;;;5040577;28;20065;-72
2021/12/23 02:31:50;;;;;;;21.45;9.88;;;3.40;88.40;;;;;;5049060;28;20029;-72
2021/12/23 02:34:17;;;;;;;14.63;5.93;;;3.40;88.30;;;;;;5050024;28;20369;-72
2021/12/23 02:36:51;;;;;;;16.45;9.45;;;3.40;88.30;;;;;;5045484;28;20408;-72
2021/12/23 02:39:17;;;;;;;16.65;10.13;;;3.40;88.90;;;;;;5034405;28;20052;-72
2021/12/23 02:41:43;;;;;;;8.13;4.97;;;3.20;89.20;;;;;;5034260;28;20473;-72
2021/12/23 02:44:09;;;;;;;14.93;6.75;;;3.10;89.80;;;;;;5047763;28;20053;-72
2021/12/23 02:46:35;;;;;;;11.48;6.15;;;3.00;90.40;;;;;;5046459;28;20033;-72
2021/12/23 02:49:02;;;;;;;10.52;4.95;;;2.90;90.30;;;;;;5040311;28;20021;-72
2021/12/23 02:51:28;;;;;;;7.93;4.07;;;2.90;90.50;;;;;;5053261;28;20438;-71
2021/12/23 02:53:53;;;;;;;8.85;4.25;;;2.90;90.60;;;;;;5040229;28;20066;-72
2021/12/23 02:56:19;;;;;;;7.13;2.30;;;2.90;90.50;;;;;;5053869;28;20393;-72
2021/12/23 02:58:45;;;;;;;2.60;2.25;;;2.90;90.50;;;;;;5053555;28;20031;-71
2021/12/23 03:01:12;;;;;;;6.70;4.00;;;3.00;90.60;;;;;;5042402;28;20045;-71
2021/12/23 03:03:38;;;;;;;3.35;2.17;;;3.00;90.60;;;;;;5036318;28;20026;-72
2021/12/23 03:06:05;;;;;;;6.80;4.15;;;3.10;90.60;;;;;;5053637;28;20086;-71
2021/12/23 03:08:41;;;;;;;6.03;3.25;;;3.10;90.50;;;;;;5047324;28;20017;-72
2021/12/23 03:11:09;;;;;;;4.90;2.97;;;3.10;90.50;;;;;;5033286;28;20041;-72
2021/12/23 03:13:36;;;;;;;11.68;3.42;;;3.20;90.40;;;;;;5041150;28;20392;-71
2021/12/23 03:16:03;;;;;;;8.63;4.60;;;3.20;90.40;;;;;;5052156;28;20037;-71
2021/12/23 03:18:30;;;;;;;14.48;7.05;;;3.30;90.30;;;;;;5053552;28;20435;-72
2021/12/23 03:20:56;;;;;;;17.55;8.35;;;3.30;90.30;;;;;;5038841;28;20040;-72
2021/12/23 03:23:22;;;;;;;5.78;2.58;;;3.40;90.30;;;;;;5044251;28;20453;-72
2021/12/23 03:25:48;;;;;;;6.70;4.78;;;3.40;90.20;;;;;;5035655;28;20040;-72
2021/12/23 03:28:14;;;;;;;12.43;6.75;;;3.50;90.10;;;;;;5052365;28;20087;-71
2021/12/23 03:30:40;;;;;;;7.72;4.10;;;3.50;90.00;;;;;;5050349;28;20030;-72
2021/12/23 03:33:06;;;;;;;5.53;3.80;;;3.50;90.00;;;;;;5032678;28;20059;-72
2021/12/23 03:35:32;;;;;;;12.52;4.57;;;3.50;89.90;;;;;;5030881;28;20447;-72
2021/12/23 03:38:01;;;;;;;19.80;8.98;;;3.60;90.00;;;;;;5036717;28;20100;-72
2021/12/23 03:40:27;;;;;;;15.93;8.38;;;3.60;89.90;;;;;;5035542;28;20032;-71
2021/12/23 03:42:53;;;;;;;13.57;6.70;;;3.60;90.10;;;;;;5031402;28;20030;-71
2021/12/23 03:45:19;;;;;;;19.95;9.48;;;3.70;89.70;;;;;;5033814;28;20042;-71
2021/12/23 03:47:48;;;;;;;15.70;6.90;;;3.70;89.50;;;;;;5035353;28;20029;-71
2021/12/23 03:50:19;;;;;;;12.38;5.88;;;3.80;89.50;;;;;;5031349;28;20481;-72
2021/12/23 03:52:46;;;;;;;18.75;9.00;;;3.80;89.40;;;;;;5033209;28;20052;-73
2021/12/23 03:55:12;;;;;;;13.40;5.95;;;3.80;89.30;;;;;;5032381;28;20037;-72
2021/12/23 03:57:38;;;;;;;19.58;8.50;;;3.90;89.20;;;;;;5031342;28;20072;-72
2021/12/23 04:00:08;;;;;;;16.38;8.15;;;3.90;89.10;;;;;;5032300;28;20408;-72
2021/12/23 04:02:37;;;;;;;5.20;3.17;;;3.90;89.10;;;;;;5046283;28;20045;-71
2021/12/23 04:05:06;;;;;;;29.27;7.43;;;3.90;89.00;;;;;;5044036;28;20032;-67
2021/12/23 04:07:32;;;;;;;8.73;5.05;;;3.90;88.90;;;;;;5036754;28;20037;-74
2021/12/23 04:09:58;;;;;;;14.68;6.72;;;4.00;89.00;;;;;;5042824;28;20033;-72
2021/12/23 04:12:24;;;;;;;17.75;7.90;;;4.00;88.90;;;;;;5051832;28;20035;-72
2021/12/23 04:14:49;;;;;;;15.45;6.85;;;4.00;88.80;;;;;;5052567;28;20021;-72
2021/12/23 04:17:15;;;;;;;11.88;6.50;;;4.00;88.80;;;;;;5051349;28;20064;-72
2021/12/23 04:19:43;;;;;;;9.18;5.30;;;4.00;88.80;;;;;;5052571;28;20025;-72
2021/12/23 04:22:09;;;;;;;11.25;6.53;;;4.00;88.80;;;;;;5036723;28;20037;-72
2021/12/23 04:24:35;;;;;;;17.60;8.25;;;4.10;88.90;;;;;;5034151;28;20029;-72
2021/12/23 04:27:00;;;;;;;10.95;4.90;;;4.00;88.60;;;;;;5031607;28;20048;-72
2021/12/23 04:29:26;;;;;;;12.32;5.93;;;4.00;88.60;;;;;;5034666;28;20490;-71
2021/12/23 04:31:52;;;;;;;13.45;6.13;;;4.00;88.60;;;;;;5031049;28;20037;-72
2021/12/23 04:34:17;;;;;;;16.20;6.63;;;4.00;88.60;;;;;;5031895;28;20052;-72
2021/12/23 04:36:43;;;;;;;14.95;7.82;;;4.00;88.60;;;;;;5031262;28;20057;-72
2021/12/23 04:39:09;;;;;;;13.40;6.60;;;4.00;88.60;;;;;;5039259;28;20094;-72
2021/12/23 04:41:34;;;;;;;16.23;8.15;;;4.10;88.60;;;;;;5051937;28;20036;-71
2021/12/23 04:44:00;;;;;;;10.63;5.78;;;4.00;88.50;;;;;;5052357;28;20025;-72
2021/12/23 04:46:25;;;;;;;13.07;6.90;;;4.10;88.50;;;;;;5051212;28;20380;-72
2021/12/23 04:48:52;;;;;;;18.30;8.68;;;4.10;88.40;;;;;;5042209;28;20060;-72
2021/12/23 04:51:19;;;;;;;14.85;6.55;;;4.10;88.30;;;;;;5035712;28;20388;-72
2021/12/23 04:53:45;;;;;;;13.32;5.88;;;4.20;88.30;;;;;;5052891;28;20068;-72
2021/12/23 04:56:12;;;;;;;7.20;4.22;;;4.20;88.20;;;;;;5055478;28;20044;-72
2021/12/23 04:58:41;;;;;;;11.77;5.97;;;4.20;88.00;;;;;;5056303;28;20040;-72
2021/12/23 05:01:16;;;;;;;11.00;5.28;;;4.10;87.90;;;;;;5037347;28;20045;-72
2021/12/23 05:03:47;;;;;;;18.88;7.15;;;4.10;88.00;;;;;;5049228;28;20116;-72
2021/12/23 05:06:13;;;;;;;12.25;5.88;;;4.20;88.00;;;;;;5044270;28;20116;-72
2021/12/23 05:08:39;;;;;;;7.25;3.78;;;4.10;87.90;;;;;;5055045;28;20029;-72
2021/12/23 05:11:05;;;;;;;5.50;3.33;;;4.00;87.90;;;;;;5055028;28;20029;-72
2021/12/23 05:13:30;;;;;;;14.82;5.45;;;4.00;88.10;;;;;;5054810;28;20500;-72
2021/12/23 05:15:56;;;;;;;5.68;2.47;;;3.90;88.20;;;;;;5055919;28;20056;-72
2021/12/23 05:18:21;;;;;;;11.20;6.28;;;3.90;88.40;;;;;;5040224;28;20408;-72
2021/12/23 05:20:48;;;;;;;7.15;3.63;;;3.90;88.70;;;;;;5035050;28;20056;-72
2021/12/23 05:23:14;;;;;;;9.23;5.05;;;3.80;88.80;;;;;;5037962;28;20112;-72
2021/12/23 05:25:40;;;;;;;9.50;4.82;;;3.80;88.90;;;;;;5055779;28;20032;-72
2021/12/23 05:28:06;;;;;;;8.60;5.10;;;3.80;89.10;;;;;;5051430;28;20506;-72
2021/12/23 05:30:31;;;;;;;16.48;8.52;;;3.80;89.10;;;;;;5044657;28;20025;-72
2021/12/23 05:32:57;;;;;;;4.88;3.55;;;3.80;89.10;;;;;;5054963;28;20078;-72
2021/12/23 05:35:23;;;;;;;10.15;5.00;;;3.80;89.10;;;;;;5045335;28;20027;-72
2021/12/23 05:37:50;;;;;;;15.73;6.38;;;3.80;89.10;;;;;;5035409;28;20057;-72
2021/12/23 05:40:19;;;;;;;6.75;4.07;;;3.80;89.20;;;;;;5035184;28;20033;-72
2021/12/23 05:42:46;;;;;;;10.43;4.32;;;3.80;89.10;;;;;;5040128;28;20036;-72
2021/12/23 05:45:13;;;;;;;13.55;6.35;;;3.80;89.10;;;;;;5042328;28;20036;-72
2021/12/23 05:47:39;;;;;;;16.30;7.00;;;3.90;89.10;;;;;;5035286;28;20037;-72
2021/12/23 05:50:05;;;;;;;15.00;8.07;;;3.80;89.10;;;;;;5047188;28;20038;-72
2021/12/23 05:52:31;;;;;;;14.13;7.97;;;3.80;89.10;;;;;;5034546;28;20045;-72
2021/12/23 05:54:57;;;;;;;12.82;7.10;;;3.80;89.10;;;;;;5042745;28;20029;-72
2021/12/23 05:57:24;;;;;;;7.47;3.85;;;3.90;89.10;;;;;;5039675;28;20029;-72
2021/12/23 05:59:49;;;;;;;6.15;3.85;;;3.90;89.00;;;;;;5042824;28;20070;-72
2021/12/23 06:02:15;;;;;;;11.90;6.40;;;3.90;88.80;;;;;;5053339;28;20044;-72
2021/12/23 06:04:41;;;;;;;12.23;5.45;;;3.90;88.80;;;;;;5041080;28;20029;-72
2021/12/23 06:07:07;;;;;;;4.30;2.53;;;3.80;89.00;;;;;;5052391;28;20043;-72
2021/12/23 06:09:32;;;;;;;19.38;7.18;;;3.80;89.20;;;;;;5043488;28;20380;-72
2021/12/23 06:11:58;;;;;;;16.20;7.45;;;3.80;89.30;;;;;;5052887;28;20025;-72
2021/12/23 06:14:24;;;;;;;5.35;2.63;;;3.80;89.30;;;;;;5045991;28;20511;-72
2021/12/23 06:16:49;;;;;;;17.20;5.85;;;3.90;89.30;;;;;;5049491;28;20033;-72
2021/12/23 06:19:15;;;;;;;6.55;3.33;;;3.90;89.20;;;;;;5054589;28;20060;-72
2021/12/23 06:21:41;;;;;;;10.80;5.88;;;3.90;89.20;;;;;;5054200;28;20064;-72
2021/12/23 06:24:06;;;;;;;15.05;8.65;;;3.90;89.20;;;;;;5052743;28;20017;-72
2021/12/23 06:26:33;;;;;;;18.10;9.02;;;3.90;89.30;;;;;;5038646;28;20103;-72
2021/12/23 06:28:59;;;;;;;11.55;7.28;;;4.00;89.20;;;;;;5034113;28;20044;-74
2021/12/23 06:31:25;;;;;;;5.15;3.35;;;4.00;89.10;;;;;;5042101;28;20044;-72
2021/12/23 06:33:51;;;;;;;11.18;5.63;;;4.00;89.00;;;;;;5039701;28;20026;-73
2021/12/23 06:36:17;;;;;;;8.05;4.10;;;4.00;88.90;;;;;;5043255;28;20032;-73
2021/12/23 06:38:43;;;;;;;2.75;2.03;;;4.00;88.90;;;;;;5053575;28;20064;-71
2021/12/23 06:41:10;;;;;;;12.82;7.57;;;4.00;89.00;;;;;;5045039;28;20072;-70
2021/12/23 06:43:35;;;;;;;5.80;3.67;;;3.90;88.90;;;;;;5034752;28;20026;-71
2021/12/23 06:46:02;;;;;;;20.40;8.73;;;4.00;89.10;;;;;;5038322;28;20492;-71
2021/12/23 06:48:29;;;;;;;15.57;7.18;;;3.90;89.10;;;;;;5036572;28;20361;-72
2021/12/23 06:50:56;;;;;;;15.52;6.82;;;4.00;89.20;;;;;;5036398;28;20034;-71
2021/12/23 06:53:23;;;;;;;14.85;8.13;;;4.00;89.20;;;;;;5032382;28;20061;-72
2021/12/23 06:55:50;;;;;;;7.22;3.67;;;4.10;89.00;;;;;;5034711;28;20040;-71
2021/12/23 06:58:17;;;;;;;17.60;7.32;;;4.10;89.00;;;;;;5036087;28;20115;-72
2021/12/23 07:00:43;;;;;;;10.02;4.90;;;4.10;88.90;;;;;;5032408;28;20485;-71
2021/12/23 07:03:09;;;;;;;6.38;3.72;;;4.10;88.80;;;;;;5033177;28;20132;-71
2021/12/23 07:05:35;;;;;;;19.17;9.10;;;4.10;88.80;;;;;;5049274;28;20123;-70
2021/12/23 07:08:09;;;;;;;15.75;7.38;;;4.10;88.70;;;;;;5033141;28;20532;-70
2021/12/23 07:10:35;;;;;;;6.65;4.35;;;4.10;88.90;;;;;;5033943;28;20120;-71
2021/12/23 07:13:07;;;;;;;9.75;5.55;;;4.00;88.80;;;;;;5045468;28;20049;-71
2021/12/23 07:15:36;;;;;;;5.95;3.72;;;4.00;88.90;;;;;;5047004;28;20112;-70
2021/12/23 07:18:02;;;;;;;7.05;4.15;;;4.00;89.00;;;;;;5034161;28;20025;-77
2021/12/23 07:20:29;;;;;;;5.97;3.83;;;4.00;89.10;;;;;;5044722;28;20032;-75
2021/12/23 07:22:55;;;;;;;8.20;4.85;;;4.00;89.30;;;;;;5051384;28;20476;-71
2021/12/23 07:25:21;;;;;;;4.10;3.38;;;3.90;89.30;;;;;;5040531;28;20051;-74
2021/12/23 07:27:47;;;;;;;15.27;8.38;;;3.90;89.40;;;;;;5040954;28;20106;-74
2021/12/23 07:30:16;;;;;;;2.47;1.88;;;3.90;89.50;;;;;;5035266;28;20384;-74
2021/12/23 07:32:42;;;;;;;15.65;7.30;;;3.80;89.70;;;;;;5032839;28;20032;-73
2021/12/23 07:35:09;;;;;;;9.15;5.43;;;3.80;89.70;;;;;;5037552;28;20029;-74
2021/12/23 07:37:36;;;;;;;14.90;5.85;;;3.90;89.90;;;;;;5032391;28;20060;-73
2021/12/23 07:40:03;;;;;;;7.35;4.05;;;3.80;89.80;;;;;;5032269;28;20037;-74
2021/12/23 07:42:31;;;;;;;11.02;6.88;;;3.80;89.90;;;;;;5034286;28;20485;-74
2021/12/23 07:45:01;;;;;;;5.05;3.38;;;3.80;89.90;;;;;;5032687;28;20033;-73
2021/12/23 07:47:27;;;;;;;2.67;2.40;;;3.70;89.70;;;;;;5032223;28;20025;-73
2021/12/23 07:49:52;;;;;;;11.45;6.38;;;3.70;89.90;;;;;;5035358;28;20481;-74
2021/12/23 07:52:20;;;;;;;17.02;8.73;;;3.70;90.10;;;;;;5045471;28;20443;-74
2021/12/23 07:54:50;;;;;;;16.60;9.85;;;3.70;90.10;;;;;;5046614;28;20025;-73
2021/12/23 07:57:16;;;;;;;10.07;5.32;;;3.60;90.10;;;;;;5048626;28;20039;-73
2021/12/23 07:59:42;;;;;;;4.40;3.58;;;3.60;90.10;;;;;;5044289;28;20025;-74
2021/12/23 08:02:07;;;;;;;10.02;5.68;;;3.60;90.20;;;;;;5038440;28;20060;-68
2021/12/23 08:04:33;;;;;;;17.60;9.13;;;3.60;90.30;;;;;;5045476;28;20029;-71
2021/12/23 08:07:02;;;;;;;17.85;8.77;;;3.60;90.30;;;;;;5047902;28;20037;-71
2021/12/23 08:09:28;;;;;;;9.70;5.15;;;3.50;90.30;;;;;;5038493;28;20079;-71
2021/12/23 08:11:54;;;;;;;14.07;5.68;;;3.50;90.30;;;;;;5044171;28;20029;-72
2021/12/23 08:14:19;;;;;;;18.60;9.85;;;3.50;90.40;;;;;;5036604;28;20025;-72
2021/12/23 08:16:46;;;;;;;20.70;9.63;;;3.50;90.40;;;;;;5043329;28;20361;-70
2021/12/23 08:19:12;;;;;;;23.25;10.40;;;3.50;90.30;;;;;;5049802;28;20036;-70
2021/12/23 08:21:38;;;;;;;19.77;9.00;;;3.50;90.40;;;;;;5031833;28;20527;-70
2021/12/23 08:24:04;;;;;;;16.80;7.90;;;3.50;90.50;;;;;;5044023;28;20026;-70
2021/12/23 08:26:38;;;;;;;23.00;9.43;;;3.50;90.50;;;;;;5049445;28;20104;-70
2021/12/23 08:29:04;;;;;;;16.42;7.88;;;3.40;90.50;;;;;;5049138;28;20617;-70
2021/12/23 08:31:30;;;;;;;12.73;7.28;;;3.40;90.50;;;;;;5049711;28;20025;-70
2021/12/23 08:33:56;;;;;;;17.52;8.55;;;3.40;90.60;;;;;;5049912;28;20472;-71
2021/12/23 08:36:21;;;;;;;16.40;9.38;;;3.40;90.60;;;;;;5049297;28;20112;-70
2021/12/23 08:38:47;;;;;;;22.00;7.88;;;3.40;90.60;;;;;;5047879;28;20357;-71
2021/12/23 08:41:13;;;;;;;18.23;7.35;;;3.40;90.60;;;;;;5050149;28;20048;-72
2021/12/23 08:43:38;;;;;;;18.80;10.02;;;3.40;90.60;;;;;;5049321;28;20025;-72
2021/12/23 08:46:04;;;;;;;27.42;11.70;;;3.40;90.60;;;;;;5046868;28;20029;-72
2021/12/23 08:48:30;;;;;;;23.77;12.43;;;3.40;90.70;;;;;;5050199;28;20040;-72
2021/12/23 08:50:55;;;;;;;18.17;9.18;;;3.40;90.60;;;;;;5049911;28;20021;-72
2021/12/23 08:53:21;;;;;;;23.05;11.57;;;3.30;90.60;;;;;;5049103;28;20048;-72
2021/12/23 08:55:47;;;;;;;12.65;7.63;;;3.30;90.70;;;;;;5043201;28;20120;-72
2021/12/23 08:58:13;;;;;;;16.85;9.68;;;3.30;90.70;;;;;;5041001;28;20022;-71
2021/12/23 09:00:40;;;;;;;13.50;5.63;;;3.30;90.80;;;;;;5031480;28;20041;-71
2021/12/23 09:03:08;;;;;;;14.00;8.02;;;3.30;90.80;;;;;;5032178;28;20029;-72
2021/12/23 09:05:35;;;;;;;25.10;11.60;;;3.30;90.90;;;;;;5034237;28;20065;-72
2021/12/23 09:08:01;;;;;;;24.58;12.27;;;3.40;90.90;;;;;;5034353;28;20025;-72
2021/12/23 09:10:27;;;;;;;16.00;8.48;;;3.30;90.80;;;;;;5048677;28;20043;-72
2021/12/23 09:12:53;;;;;;;17.42;7.75;;;3.30;90.80;;;;;;5032563;28;20056;-71
2021/12/23 09:15:20;;;;;;;21.80;10.52;;;3.30;90.80;;;;;;5038878;28;20037;-72
2021/12/23 09:17:46;;;;;;;20.30;8.18;;;3.30;90.80;;;;;;5035523;28;20033;-72
2021/12/23 09:20:14;;;;;;;21.00;9.20;;;3.40;90.80;;;;;;5032693;28;20037;-72
2021/12/23 09:22:41;;;;;;;16.20;5.75;;;3.30;90.80;;;;;;5035718;28;20049;-72
2021/12/23 09:25:12;;;;;;;19.58;8.52;;;3.30;90.90;;;;;;5040497;28;20056;-72
2021/12/23 09:28:05;;;;;;;19.67;10.23;;;3.30;90.90;;;;;;5049811;28;20032;-72
2021/12/23 09:33:13;;;;;;;17.77;7.78;;;3.40;90.80;;;;;;5043590;28;20037;-72
2021/12/23 09:35:39;;;;;;;18.13;8.25;;;3.40;90.90;;;;;;5044114;28;20022;-72
2021/12/23 09:38:08;;;;;;;9.38;5.82;;;3.40;90.90;;;;;;5031858;28;20053;-72
2021/12/23 09:40:35;;;;;;;12.50;6.43;;;3.40;90.90;;;;;;5052664;28;20482;-72
2021/12/23 09:43:10;;;;;;;8.68;5.00;;;3.40;90.90;;;;;;5042664;28;20037;-72
2021/12/23 09:45:38;;;;;;;11.68;5.85;;;3.50;91.00;;;;;;5052890;28;20496;-72
2021/12/23 09:48:05;;;;;;;9.80;6.43;;;3.50;91.00;;;;;;5052475;28;20074;-72
2021/12/23 09:50:36;;;;;;;20.17;7.65;;;3.50;90.90;;;;;;5035272;28;20034;-72
2021/12/23 09:53:04;;;;;;;12.13;5.00;;;3.60;90.90;;;;;;5049665;28;20059;-72
2021/12/23 09:55:30;;;;;;;8.25;5.15;;;3.60;90.90;;;;;;5046358;28;20044;-79
2021/12/23 09:57:58;;;;;;;21.35;10.27;;;3.60;90.90;;;;;;5043078;28;20028;-78
2021/12/23 10:00:28;;;;;;;22.77;9.40;;;3.60;90.90;;;;;;5032851;28;20068;-73
2021/12/23 10:02:54;;;;;;;14.32;7.80;;;3.60;90.80;;;;;;5034972;28;20045;-72
2021/12/23 10:05:23;;;;;;;19.33;9.50;;;3.60;90.70;;;;;;5038264;28;20120;-79
2021/12/23 10:07:49;;;;;;;15.98;8.38;;;3.60;90.80;;;;;;5033670;28;20558;-72
2021/12/23 10:38:07;;;;;;;16.70;8.85;;;3.60;91.00;;;;;;5032978;28;20040;-70
2021/12/23 10:40:34;;;;;;;23.98;10.27;;;3.60;91.00;;;;;;5034169;28;20103;-71
2021/12/23 10:43:01;;;;;;;13.05;6.22;;;3.60;91.10;;;;;;5033854;28;20065;-71
2021/12/23 10:45:47;;;;;;;32.08;13.98;;;3.60;91.10;;;;;;5032565;28;20029;-70
2021/12/23 10:48:15;;;;;;;26.08;10.85;;;3.60;91.20;;;;;;5033653;28;20033;-77
2021/12/23 10:50:46;;;;;;;12.38;8.02;;;3.60;91.20;;;;;;5032001;28;20096;-77
2021/12/23 10:59:22;;;;;;;28.20;10.20;;;3.60;91.30;;;;;;5030698;28;20021;-75
2021/12/23 11:02:19;;;;;;;29.90;11.45;;;3.70;91.40;;;;;;5036422;28;20112;-75
2021/12/23 11:05:00;;;;;;;26.33;12.45;;;3.70;91.30;;;;;;5034175;28;20033;-77
2021/12/23 11:07:42;;;;;;;10.95;6.55;;;3.70;91.30;;;;;;5031755;28;20033;-76
2021/12/23 11:30:35;;;;;;;5.55;4.15;;;3.90;91.30;;;;;;5015445;28;20032;-78
2021/12/23 11:36:21;;;;;;;18.02;8.77;;;3.90;91.20;;;;;;5043541;28;20157;-76
2021/12/23 11:43:54;;;;;;;17.77;7.43;;;4.00;91.30;;;;;;5031703;28;20064;-71
2021/12/23 11:46:45;;;;;;;23.45;9.20;;;4.00;91.20;;;;;;5031674;28;20098;-71
2021/12/23 11:49:13;;;;;;;15.18;6.95;;;4.00;91.20;;;;;;5032484;28;20541;-71
2021/12/23 11:51:51;;;;;;;12.02;7.50;;;4.10;91.20;;;;;;5031867;28;20032;-72
2021/12/23 11:54:30;;;;;;;9.35;5.45;;;4.10;91.20;;;;;;5037208;28;20130;-71
2021/12/23 11:57:04;;;;;;;29.25;12.52;;;4.00;91.10;;;;;;5022787;28;20063;-71
2021/12/23 11:59:32;;;;;;;17.25;9.43;;;4.10;91.10;;;;;;5030422;28;20408;-71
2021/12/23 12:01:58;;;;;;;17.73;8.95;;;4.10;91.10;;;;;;5032102;28;20516;-71
2021/12/23 12:04:31;;;;;;;27.17;13.90;;;4.00;91.10;;;;;;5031919;28;20025;-71
2021/12/23 12:06:58;;;;;;;20.52;10.95;;;4.10;91.20;;;;;;5031173;28;20107;-70
2021/12/23 12:09:30;;;;;;;20.00;8.50;;;4.00;91.20;;;;;;5029980;28;20377;-71
2021/12/23 12:11:59;;;;;;;20.50;8.93;;;4.00;91.20;;;;;;5030447;28;20045;-71
2021/12/23 12:14:38;;;;;;;11.32;5.75;;;4.00;91.20;;;;;;5030912;28;20389;-71
2021/12/23 12:17:25;;;;;;;21.20;11.85;;;4.00;91.30;;;;;;5031831;28;20025;-71
2021/12/23 12:19:57;;;;;;;10.82;4.80;;;4.00;91.40;;;;;;5030332;28;20037;-70
2021/12/23 12:23:00;;;;;;;26.45;10.25;;;4.00;91.30;;;;;;5033747;28;20045;-71
2021/12/23 12:25:25;;;;;;;24.55;11.90;;;4.00;91.40;;;;;;5030175;28;20043;-71
2021/12/23 12:28:17;;;;;;;19.98;8.52;;;4.00;91.40;;;;;;5029960;28;20022;-71
2021/12/23 12:31:03;;;;;;;13.13;6.18;;;4.00;91.40;;;;;;5029341;28;20041;-71
2021/12/23 12:33:28;;;;;;;13.93;7.00;;;4.00;91.40;;;;;;5030035;28;20499;-71
2021/12/23 12:36:05;;;;;;;23.92;9.77;;;4.10;91.50;;;;;;5033419;28;20060;-71
2021/12/23 12:38:34;;;;;;;10.63;5.70;;;4.10;91.40;;;;;;5030506;28;20044;-71
2021/12/23 12:41:11;;;;;;;17.58;8.57;;;4.10;91.40;;;;;;5029039;28;20037;-71
2021/12/23 12:43:43;;;;;;;25.10;8.85;;;4.20;91.40;;;;;;5031915;28;20541;-71
2021/12/23 12:46:11;;;;;;;41.13;17.52;;;4.20;91.40;;;;;;5031268;28;20124;-71
2021/12/23 12:48:59;;;;;;;24.92;8.48;;;4.20;91.30;;;;;;5029041;28;20108;-71
2021/12/23 12:51:37;;;;;;;19.17;8.52;;;4.30;91.30;;;;;;5028614;28;20084;-69
2021/12/23 12:54:06;;;;;;;27.15;11.27;;;4.30;91.30;;;;;;5029074;28;20496;-70
2021/12/23 12:56:42;;;;;;;15.55;6.00;;;4.40;91.20;;;;;;5028281;28;20030;-70
2021/12/23 12:59:09;;;;;;;10.05;6.45;;;4.40;91.20;;;;;;5029244;28;20037;-70
2021/12/23 13:01:49;;;;;;;25.70;12.43;;;4.50;91.20;;;;;;5034840;28;20392;-71
2021/12/23 13:04:35;;;;;;;23.25;9.88;;;4.50;91.10;;;;;;5050111;28;20086;-71
2021/12/23 13:07:39;;;;;;;24.15;12.50;;;4.60;91.10;;;;;;5033767;28;20612;-71
2021/12/23 13:10:33;;;;;;;9.15;4.43;;;4.60;91.00;;;;;;5040917;28;20040;-71
2021/12/23 13:13:35;;;;;;;27.95;12.50;;;4.60;91.00;;;;;;5036072;28;20129;-71
2021/12/23 13:16:25;;;;;;;20.52;8.98;;;4.60;90.90;;;;;;5041841;28;20030;-70
2021/12/23 13:19:18;;;;;;;34.60;15.23;;;4.70;90.90;;;;;;5035200;28;20429;-70
2021/12/23 13:21:48;;;;;;;17.27;7.53;;;4.70;91.00;;;;;;5035134;28;20037;-70
2021/12/23 13:24:17;;;;;;;35.60;15.73;;;4.70;90.90;;;;;;5045736;28;20037;-71
2021/12/23 13:26:44;;;;;;;30.77;13.75;;;4.70;90.90;;;;;;5051513;28;20040;-70
2021/12/23 13:29:10;;;;;;;23.17;10.00;;;4.80;90.90;;;;;;5054458;28;20021;-70
2021/12/23 13:31:37;;;;;;;14.38;6.10;;;4.80;90.90;;;;;;5042686;28;20037;-78
2021/12/23 13:34:16;;;;;;;13.57;7.32;;;4.80;90.80;;;;;;5045978;28;20052;-75
2021/12/23 13:36:45;;;;;;;28.17;10.75;;;4.80;90.70;;;;;;5033073;28;20034;-70
2021/12/23 13:39:17;;;;;;;18.23;8.48;;;4.80;90.70;;;;;;5042867;28;20128;-70
2021/12/23 13:41:49;;;;;;;35.75;10.43;;;4.80;90.70;;;;;;5038104;28;20103;-70
2021/12/23 13:44:14;;;;;;;18.02;7.90;;;4.80;90.60;;;;;;5051369;28;20029;-71
2021/12/23 13:46:41;;;;;;;12.75;5.95;;;4.80;90.60;;;;;;5035665;28;20355;-71
2021/12/23 13:49:07;;;;;;;26.83;13.45;;;4.80;90.60;;;;;;5039826;28;20035;-71
2021/12/23 13:51:39;;;;;;;31.05;13.43;;;4.70;90.60;;;;;;5031802;28;20072;-71
2021/12/23 13:54:12;;;;;;;14.50;7.30;;;4.80;90.70;;;;;;5031971;28;20033;-71
2021/12/23 13:56:43;;;;;;;21.92;9.18;;;4.80;90.70;;;;;;5033075;28;20112;-70
2021/12/23 13:59:21;;;;;;;25.50;12.10;;;4.80;90.70;;;;;;5032298;28;20068;-70
2021/12/23 14:02:04;;;;;;;15.77;6.75;;;4.80;90.70;;;;;;5031625;28;20205;-71
2021/12/23 14:04:40;;;;;;;10.30;5.70;;;4.70;90.70;;;;;;5033967;28;20033;-70
2021/12/23 14:07:15;;;;;;;15.40;8.00;;;4.80;90.70;;;;;;5034429;28;20500;-71
2021/12/23 14:09:48;;;;;;;18.02;9.15;;;4.70;90.70;;;;;;5034055;28;20111;-71